Time;durP1;ratioP1;P1;durP2;ratioP2;P2;SDS_P1;SDS_P2;PMS_P1;PMS_P2;Temp;Humidity;BMP_temperature;BMP_pressure;BME280_temperature;BME280_humidity;BME280_pressure;Samples;Min_cycle;Max_cycle;Signal;HPM_P1;HPM_P2
2022/12/25 00:02:03;;;;;;;0.80;0.80;;;-8.40;99.90;;;;;;5092808;28;20196;-71
2022/12/25 00:04:32;;;;;;;3.17;1.73;;;-8.40;99.90;;;;;;5090890;28;20231;-72
2022/12/25 00:06:58;;;;;;;0.83;0.83;;;-8.30;99.90;;;;;;5073957;28;20230;-72
2022/12/25 00:09:24;;;;;;;0.80;0.80;;;-8.40;99.90;;;;;;5094601;28;20189;-72
2022/12/25 00:11:50;;;;;;;0.90;0.90;;;-8.40;99.90;;;;;;5094737;28;20207;-73
2022/12/25 00:14:16;;;;;;;0.80;0.80;;;-8.50;99.90;;;;;;5094790;28;20203;-71
2022/12/25 00:16:41;;;;;;;0.90;0.90;;;-8.40;99.90;;;;;;5095205;28;20192;-72
2022/12/25 00:19:07;;;;;;;2.30;1.40;;;-8.50;99.90;;;;;;5076567;28;20193;-72
2022/12/25 00:21:33;;;;;;;1.00;1.00;;;-8.40;99.90;;;;;;5095021;28;20192;-72
2022/12/25 00:24:02;;;;;;;0.90;0.90;;;-8.40;99.90;;;;;;5094934;28;20199;-73
2022/12/25 00:26:28;;;;;;;0.90;0.90;;;-8.40;99.90;;;;;;5076041;28;20202;-73
2022/12/25 00:28:56;;;;;;;0.87;0.87;;;-8.30;99.90;;;;;;5094504;28;20267;-72
2022/12/25 00:31:23;;;;;;;1.00;1.00;;;-8.30;99.90;;;;;;5075895;28;20204;-72
2022/12/25 00:33:50;;;;;;;2.00;1.57;;;-8.30;99.90;;;;;;5076363;28;20204;-72
2022/12/25 00:36:19;;;;;;;0.80;0.80;;;-8.40;99.90;;;;;;5076266;28;20675;-73
2022/12/25 00:38:46;;;;;;;0.90;0.90;;;-8.40;99.90;;;;;;5094123;28;20295;-73
2022/12/25 00:44:04;;;;;;;0.80;0.80;;;-8.40;99.90;;;;;;5094468;28;20697;-73
2022/12/25 00:46:30;;;;;;;0.90;0.90;;;-8.50;99.90;;;;;;5094045;28;20207;-72
2022/12/25 00:48:59;;;;;;;0.80;0.80;;;-8.60;99.90;;;;;;5094008;28;20192;-72
2022/12/25 00:51:25;;;;;;;1.00;1.00;;;-8.60;99.90;;;;;;5093928;28;20245;-72
2022/12/25 00:53:51;;;;;;;0.90;0.90;;;-8.70;99.90;;;;;;5094242;28;20208;-72
2022/12/25 00:56:17;;;;;;;1.67;1.57;;;-8.70;99.90;;;;;;5092482;28;20210;-73
2022/12/25 00:58:43;;;;;;;0.97;0.97;;;-8.80;99.90;;;;;;5073696;28;20192;-72
2022/12/25 01:01:11;;;;;;;0.80;0.80;;;-8.80;99.90;;;;;;5073548;28;20188;-72
2022/12/25 01:03:37;;;;;;;0.90;0.90;;;-8.80;99.90;;;;;;5073396;28;20235;-72
2022/12/25 01:06:05;;;;;;;1.63;1.53;;;-8.90;99.90;;;;;;5073474;28;20193;-72
2022/12/25 01:08:34;;;;;;;1.00;1.00;;;-8.90;99.90;;;;;;5055311;28;20272;-72
2022/12/25 01:11:03;;;;;;;0.83;0.83;;;-8.90;99.90;;;;;;5073549;28;20200;-72
2022/12/25 01:13:29;;;;;;;0.80;0.80;;;-9.00;99.90;;;;;;5073572;28;20254;-73
2022/12/25 01:15:55;;;;;;;0.90;0.90;;;-9.10;99.90;;;;;;5077740;28;20268;-73
2022/12/25 01:18:23;;;;;;;1.93;1.80;;;-9.10;99.90;;;;;;5074655;28;20334;-72
2022/12/25 01:20:49;;;;;;;0.90;0.90;;;-9.10;99.90;;;;;;5093514;28;20531;-73
2022/12/25 01:23:15;;;;;;;0.80;0.80;;;-9.10;99.90;;;;;;5075080;28;20605;-73
2022/12/25 01:25:43;;;;;;;0.80;0.80;;;-9.20;99.90;;;;;;5093266;28;20200;-73
2022/12/25 01:28:09;;;;;;;1.50;1.40;;;-9.20;99.90;;;;;;5075403;28;20663;-73
2022/12/25 01:30:35;;;;;;;0.83;0.83;;;-9.20;99.90;;;;;;5093438;28;20271;-73
2022/12/25 01:33:01;;;;;;;0.87;0.87;;;-9.30;99.90;;;;;;5093136;28;20225;-73
2022/12/25 01:35:26;;;;;;;0.90;0.90;;;-9.20;99.90;;;;;;5093066;28;20250;-73
2022/12/25 01:37:52;;;;;;;0.87;0.87;;;-9.20;99.90;;;;;;5092918;28;20219;-72
2022/12/25 01:40:18;;;;;;;1.83;1.73;;;-9.20;99.90;;;;;;5093218;28;20234;-72
2022/12/25 01:42:44;;;;;;;0.90;0.90;;;-9.20;99.90;;;;;;5075091;28;20574;-71
2022/12/25 01:45:35;;;;;;;0.90;0.90;;;-9.30;99.90;;;;;;5092692;28;20207;-71
2022/12/25 01:48:06;;;;;;;1.60;1.50;;;-9.20;99.90;;;;;;5093048;28;20188;-72
2022/12/25 01:50:33;;;;;;;0.90;0.90;;;-9.30;99.90;;;;;;5092734;28;20188;-73
2022/12/25 01:52:59;;;;;;;3.07;1.53;;;-9.30;99.90;;;;;;5074617;28;20204;-72
2022/12/25 01:55:26;;;;;;;0.90;0.90;;;-9.30;99.90;;;;;;5092600;28;20185;-72
2022/12/25 01:57:52;;;;;;;0.83;0.83;;;-9.30;99.90;;;;;;5074477;28;20200;-72
2022/12/25 02:00:20;;;;;;;1.00;1.00;;;-9.30;99.90;;;;;;5092739;28;20595;-73
2022/12/25 02:02:47;;;;;;;1.73;1.60;;;-9.30;99.90;;;;;;5087985;28;20204;-73
2022/12/25 02:05:16;;;;;;;0.90;0.90;;;-9.30;99.90;;;;;;5092439;28;20300;-72
2022/12/25 02:07:45;;;;;;;0.90;0.90;;;-9.30;99.90;;;;;;5092413;28;20196;-72
2022/12/25 02:10:15;;;;;;;0.90;0.90;;;-9.30;99.90;;;;;;5092929;28;20230;-72
2022/12/25 02:12:47;;;;;;;1.87;1.70;;;-9.30;99.90;;;;;;5092155;28;20207;-72
2022/12/25 02:15:18;;;;;;;0.90;0.90;;;-9.30;99.90;;;;;;5074292;28;20632;-72
2022/12/25 02:18:29;;;;;;;0.80;0.80;;;-9.30;99.90;;;;;;5092410;28;20558;-72
2022/12/25 02:21:35;;;;;;;0.93;0.93;;;-9.20;99.90;;;;;;5013155;28;20236;-72
2022/12/25 02:24:22;;;;;;;0.90;0.90;;;-9.20;99.90;;;;;;5029603;28;20194;-73
2022/12/25 02:27:07;;;;;;;0.90;0.90;;;-9.20;99.90;;;;;;5012992;28;20214;-73
2022/12/25 02:30:00;;;;;;;0.80;0.80;;;-9.20;99.90;;;;;;5028823;28;20191;-72
2022/12/25 02:32:40;;;;;;;0.77;0.77;;;-9.20;99.90;;;;;;5012709;28;20580;-73
2022/12/25 02:35:23;;;;;;;0.87;0.87;;;-9.10;99.90;;;;;;5029550;28;20277;-72
2022/12/25 02:38:02;;;;;;;0.80;0.80;;;-9.10;99.90;;;;;;5029209;28;20596;-73
2022/12/25 02:40:49;;;;;;;0.90;0.90;;;-9.10;99.90;;;;;;5012524;28;20198;-73
2022/12/25 03:12:13;;;;;;;0.80;0.80;;;-8.90;99.90;;;;;;5091342;28;20202;-73
2022/12/25 03:17:23;;;;;;;0.80;0.80;;;-9.00;99.90;;;;;;5091295;28;20305;-72
2022/12/25 03:28:04;;;;;;;0.80;0.80;;;-8.90;99.90;;;;;;5091578;28;20333;-71
2022/12/25 04:36:44;;;;;;;0.90;0.90;;;-8.50;99.90;;;;;;5094846;28;20606;-74
2022/12/25 04:39:16;;;;;;;0.90;0.90;;;-8.60;99.90;;;;;;5094148;28;20283;-72
2022/12/25 04:41:42;;;;;;;0.90;0.90;;;-8.50;99.90;;;;;;5094062;28;20187;-73
2022/12/25 04:44:08;;;;;;;0.90;0.90;;;-8.70;99.90;;;;;;5094359;28;20192;-73
2022/12/25 04:46:34;;;;;;;0.80;0.80;;;-8.60;99.90;;;;;;5092874;28;20667;-73
2022/12/25 04:49:02;;;;;;;0.80;0.80;;;-8.70;99.90;;;;;;5094356;28;20195;-73
2022/12/25 04:51:28;;;;;;;1.00;1.00;;;-8.60;99.90;;;;;;5094144;28;20595;-73
2022/12/25 04:53:55;;;;;;;0.90;0.90;;;-8.60;99.90;;;;;;5093287;28;20200;-73
2022/12/25 04:56:21;;;;;;;0.90;0.90;;;-8.50;99.90;;;;;;5092779;28;20192;-73
2022/12/25 04:58:47;;;;;;;0.90;0.90;;;-8.50;99.90;;;;;;5092609;28;20335;-73
2022/12/25 05:01:13;;;;;;;0.80;0.80;;;-8.50;99.90;;;;;;5093802;28;20196;-72
2022/12/25 05:03:39;;;;;;;0.90;0.90;;;-8.50;99.90;;;;;;5098875;28;20271;-73
2022/12/25 05:06:06;;;;;;;0.87;0.87;;;-8.40;99.90;;;;;;5114232;28;20271;-73
2022/12/25 05:08:34;;;;;;;0.90;0.90;;;-8.30;99.90;;;;;;5114090;28;20191;-73
2022/12/25 05:11:04;;;;;;;0.80;0.80;;;-8.30;99.90;;;;;;5114123;28;20196;-73
2022/12/25 05:13:31;;;;;;;0.90;0.90;;;-8.30;99.90;;;;;;5113946;28;20207;-73
2022/12/25 05:15:56;;;;;;;0.87;0.87;;;-8.30;99.90;;;;;;5113932;28;20245;-73
2022/12/25 05:18:54;;;;;;;0.90;0.90;;;-8.30;99.90;;;;;;5117853;28;20184;-72
2022/12/25 05:21:19;;;;;;;0.90;0.90;;;-8.20;99.90;;;;;;5071884;28;20246;-72
2022/12/25 05:23:50;;;;;;;0.80;0.80;;;-8.20;99.90;;;;;;5068942;28;20204;-72
2022/12/25 05:26:19;;;;;;;0.90;0.90;;;-8.20;99.90;;;;;;5076364;28;20204;-72
2022/12/25 05:28:45;;;;;;;0.80;0.80;;;-8.20;99.90;;;;;;5093474;28;20693;-71
2022/12/25 05:31:11;;;;;;;0.80;0.80;;;-8.20;99.90;;;;;;5074997;28;20283;-71
2022/12/25 05:33:37;;;;;;;1.07;1.07;;;-8.20;99.90;;;;;;5075053;28;20334;-71
2022/12/25 05:36:08;;;;;;;0.90;0.90;;;-8.30;99.90;;;;;;5075244;28;20686;-73
2022/12/25 05:38:34;;;;;;;0.90;0.90;;;-8.30;99.90;;;;;;5091326;28;20192;-72
2022/12/25 05:41:00;;;;;;;1.00;1.00;;;-8.40;99.90;;;;;;5075533;28;20192;-72
2022/12/25 05:43:27;;;;;;;2.00;1.90;;;-8.40;99.90;;;;;;5092870;28;20386;-73
2022/12/25 05:45:53;;;;;;;0.90;0.90;;;-8.30;99.90;;;;;;5074983;28;20207;-72
2022/12/25 05:48:18;;;;;;;0.93;0.93;;;-8.30;99.90;;;;;;5092920;28;20275;-71
2022/12/25 05:50:52;;;;;;;0.80;0.80;;;-8.30;99.90;;;;;;5097436;28;20226;-72
2022/12/25 05:53:17;;;;;;;0.80;0.80;;;-8.30;99.90;;;;;;5092600;28;20700;-72
2022/12/25 05:55:43;;;;;;;1.00;1.00;;;-8.30;99.90;;;;;;5092699;28;20184;-71
2022/12/25 05:58:10;;;;;;;0.80;0.80;;;-8.30;99.90;;;;;;5092689;28;20271;-72
2022/12/25 06:00:36;;;;;;;1.20;1.20;;;-8.30;99.90;;;;;;5092569;28;20797;-73
2022/12/25 06:03:02;;;;;;;1.17;1.13;;;-8.20;99.90;;;;;;5092557;28;20584;-71
2022/12/25 06:05:28;;;;;;;6.73;3.93;;;-8.20;99.90;;;;;;5089733;28;20232;-72
2022/12/25 06:07:54;;;;;;;2.40;1.40;;;-8.20;99.90;;;;;;5092668;28;20607;-73
2022/12/25 06:10:20;;;;;;;1.07;1.07;;;-8.20;99.90;;;;;;5092483;28;20195;-73
2022/12/25 06:12:46;;;;;;;4.10;2.40;;;-8.10;99.90;;;;;;5091093;28;20208;-73
2022/12/25 06:15:12;;;;;;;0.90;0.90;;;-8.10;99.90;;;;;;5091270;28;20283;-72
2022/12/25 06:17:38;;;;;;;1.33;1.23;;;-8.00;99.90;;;;;;5092364;28;20203;-73
2022/12/25 06:20:04;;;;;;;1.67;1.57;;;-7.90;99.90;;;;;;5091058;28;20287;-72
2022/12/25 06:22:31;;;;;;;0.90;0.90;;;-7.90;99.90;;;;;;5092217;28;20207;-73
2022/12/25 06:24:57;;;;;;;1.00;1.00;;;-7.90;99.90;;;;;;5092663;28;20225;-72
2022/12/25 06:27:23;;;;;;;0.90;0.90;;;-7.90;99.90;;;;;;5090863;28;20216;-72
2022/12/25 06:29:49;;;;;;;3.03;2.70;;;-7.90;99.90;;;;;;5091022;28;20200;-72
2022/12/25 06:32:14;;;;;;;0.87;0.87;;;-7.90;99.90;;;;;;5090755;28;20203;-71
2022/12/25 06:34:43;;;;;;;0.80;0.80;;;-7.80;99.90;;;;;;5090590;28;20238;-71
2022/12/25 06:37:09;;;;;;;1.00;1.00;;;-7.80;99.90;;;;;;5092130;28;20560;-72
2022/12/25 06:39:34;;;;;;;0.90;0.90;;;-7.80;99.90;;;;;;5071880;28;20557;-72
2022/12/25 06:42:00;;;;;;;0.87;0.87;;;-7.80;99.90;;;;;;5070415;28;20239;-72
2022/12/25 06:44:26;;;;;;;0.90;0.90;;;-7.80;99.90;;;;;;5071609;28;20189;-71
2022/12/25 06:46:53;;;;;;;0.90;0.90;;;-7.80;99.90;;;;;;5070474;28;20192;-71
2022/12/25 06:49:20;;;;;;;0.80;0.80;;;-7.70;99.90;;;;;;5071499;28;20189;-72
2022/12/25 06:51:48;;;;;;;0.80;0.80;;;-7.70;99.90;;;;;;5071859;28;20776;-72
2022/12/25 06:54:17;;;;;;;0.80;0.80;;;-7.80;99.90;;;;;;5082746;28;20188;-71
2022/12/25 06:56:43;;;;;;;0.90;0.90;;;-7.80;99.90;;;;;;5091802;28;20218;-72
2022/12/25 06:59:09;;;;;;;1.50;1.40;;;-7.70;99.90;;;;;;5091743;28;20674;-71
2022/12/25 07:01:38;;;;;;;0.90;0.90;;;-7.80;99.90;;;;;;5089928;28;20393;-73
2022/12/25 07:04:13;;;;;;;0.90;0.90;;;-7.70;99.90;;;;;;5090177;28;20269;-72
2022/12/25 07:06:39;;;;;;;1.60;1.50;;;-7.60;99.90;;;;;;5091462;28;20204;-72
2022/12/25 07:09:04;;;;;;;0.90;0.90;;;-7.60;99.90;;;;;;5090600;28;20717;-71
2022/12/25 07:11:30;;;;;;;1.00;1.00;;;-7.50;99.90;;;;;;5091344;28;20695;-72
2022/12/25 07:13:56;;;;;;;1.10;1.10;;;-7.50;99.90;;;;;;5091448;28;20203;-72
2022/12/25 07:16:22;;;;;;;1.00;1.00;;;-7.50;99.90;;;;;;5089505;28;20200;-72
2022/12/25 07:18:47;;;;;;;0.90;0.90;;;-7.40;99.90;;;;;;5090209;28;20192;-72
2022/12/25 07:21:16;;;;;;;0.80;0.80;;;-7.40;99.90;;;;;;5091512;28;20601;-73
2022/12/25 07:23:44;;;;;;;0.80;0.80;;;-7.30;99.90;;;;;;5089670;28;20292;-72
2022/12/25 07:26:11;;;;;;;0.80;0.80;;;-7.30;99.90;;;;;;5090080;28;20208;-73
2022/12/25 07:28:43;;;;;;;1.00;1.00;;;-7.30;99.90;;;;;;5097644;28;20369;-72
2022/12/25 07:31:16;;;;;;;0.90;0.90;;;-7.30;99.90;;;;;;5095739;28;20745;-73
2022/12/25 07:33:43;;;;;;;0.77;0.77;;;-7.20;99.90;;;;;;5088840;28;20212;-72
2022/12/25 07:36:09;;;;;;;0.90;0.90;;;-7.20;99.90;;;;;;5093021;28;20203;-74
2022/12/25 07:38:35;;;;;;;0.73;0.73;;;-7.20;99.90;;;;;;5079674;28;20283;-73
2022/12/25 07:41:04;;;;;;;0.90;0.90;;;-7.10;99.90;;;;;;5075989;28;20233;-73
2022/12/25 07:43:29;;;;;;;2.50;2.30;;;-7.10;99.90;;;;;;5091392;28;20219;-73
2022/12/25 07:49:28;;;;;;;0.70;0.70;;;-7.00;99.90;;;;;;5081589;28;20208;-72
2022/12/25 07:51:54;;;;;;;1.03;1.03;;;-6.90;99.90;;;;;;5091164;28;20674;-72
2022/12/25 07:58:13;;;;;;;0.80;0.80;;;-6.90;99.90;;;;;;5098565;28;20265;-73
2022/12/25 08:04:53;;;;;;;0.80;0.80;;;-6.80;99.90;;;;;;4972138;28;20276;-74
2022/12/25 08:11:00;;;;;;;0.90;0.90;;;-6.80;99.90;;;;;;4913823;29;20221;-74
2022/12/25 08:23:40;;;;;;;1.87;1.77;;;-6.40;99.90;;;;;;4879019;29;20231;-72
2022/12/25 08:26:48;;;;;;;1.00;1.00;;;-6.50;99.90;;;;;;4878116;29;20208;-73
2022/12/25 08:29:52;;;;;;;1.03;1.03;;;-6.40;99.90;;;;;;4876252;29;20335;-74
2022/12/25 08:32:18;;;;;;;0.80;0.80;;;-6.30;99.90;;;;;;4877902;29;20217;-73
2022/12/25 08:34:53;;;;;;;0.70;0.70;;;-6.30;99.90;;;;;;4883924;29;20212;-72
2022/12/25 08:37:34;;;;;;;1.10;1.10;;;-6.30;99.90;;;;;;4883526;29;20735;-73
2022/12/25 08:40:31;;;;;;;0.80;0.80;;;-6.20;99.90;;;;;;4912157;29;20638;-73
2022/12/25 08:43:38;;;;;;;0.90;0.90;;;-6.10;99.90;;;;;;4954661;28;20212;-73
2022/12/25 08:46:05;;;;;;;0.90;0.90;;;-6.10;99.90;;;;;;4938939;28;20726;-73
2022/12/25 08:49:26;;;;;;;0.87;0.87;;;-6.10;99.90;;;;;;5001673;28;20288;-73
2022/12/25 08:51:57;;;;;;;0.80;0.80;;;-6.00;99.90;;;;;;5014815;28;20202;-74
2022/12/25 08:54:24;;;;;;;1.60;1.47;;;-5.90;99.90;;;;;;5031505;28;20240;-73
2022/12/25 08:57:38;;;;;;;2.53;2.33;;;-5.80;99.90;;;;;;5031705;28;20276;-74
2022/12/25 09:00:12;;;;;;;1.67;1.57;;;-5.70;99.90;;;;;;5056609;28;20295;-74
2022/12/25 09:02:38;;;;;;;0.80;0.80;;;-5.70;99.90;;;;;;5076597;28;20590;-74
2022/12/25 09:05:04;;;;;;;0.77;0.77;;;-5.60;99.90;;;;;;5094226;28;20307;-74
2022/12/25 09:07:30;;;;;;;0.90;0.90;;;-5.50;99.90;;;;;;5094179;28;20288;-75
2022/12/25 09:09:56;;;;;;;1.50;1.40;;;-5.50;99.90;;;;;;5093901;28;20244;-75
2022/12/25 09:12:22;;;;;;;0.80;0.80;;;-5.50;99.90;;;;;;5093629;28;20211;-74
2022/12/25 09:14:47;;;;;;;0.77;0.77;;;-5.50;99.90;;;;;;5094486;28;20239;-74
2022/12/25 09:17:16;;;;;;;1.13;1.03;;;-5.40;99.90;;;;;;5076985;28;20199;-75
2022/12/25 09:20:05;;;;;;;0.80;0.80;;;-5.40;99.90;;;;;;5097785;28;20196;-75
2022/12/25 09:23:08;;;;;;;0.98;0.98;;;-5.30;99.90;;;;;;5075610;28;20722;-75
2022/12/25 09:25:36;;;;;;;1.23;1.17;;;-5.20;99.90;;;;;;5073315;28;20574;-75
2022/12/25 09:28:54;;;;;;;1.07;1.03;;;-5.10;99.90;;;;;;5056705;28;20232;-75
2022/12/25 09:31:21;;;;;;;0.80;0.80;;;-5.00;99.90;;;;;;5073043;28;20694;-74
2022/12/25 09:33:50;;;;;;;0.90;0.90;;;-5.00;99.90;;;;;;5062923;28;20264;-74
2022/12/25 09:36:49;;;;;;;6.53;2.23;;;-4.90;99.90;;;;;;5077472;28;20693;-75
2022/12/25 09:39:40;;;;;;;1.23;1.13;;;-4.80;99.90;;;;;;5039881;28;20216;-74
2022/12/25 09:42:30;;;;;;;1.67;1.57;;;-4.70;99.90;;;;;;5090687;28;20204;-75
2022/12/25 09:45:10;;;;;;;2.83;2.63;;;-4.70;99.90;;;;;;5078659;28;20591;-75
2022/12/25 09:52:01;;;;;;;0.82;0.82;;;-4.60;99.90;;;;;;4994427;28;20211;-74
2022/12/25 09:55:23;;;;;;;0.82;0.82;;;-4.50;99.90;;;;;;4977992;28;20215;-75
2022/12/25 10:06:04;;;;;;;1.02;1.02;;;-4.50;99.90;;;;;;4997279;28;20231;-74
2022/12/25 10:08:49;;;;;;;0.73;0.73;;;-4.40;99.90;;;;;;5058792;28;20205;-75
2022/12/25 10:18:19;;;;;;;0.90;0.90;;;-4.30;99.90;;;;;;5066142;28;20208;-75
2022/12/25 10:21:09;;;;;;;0.75;0.75;;;-4.20;99.90;;;;;;5061079;28;20481;-75
2022/12/25 10:27:46;;;;;;;0.80;0.80;;;-4.10;99.90;;;;;;5074590;28;20211;-75
2022/12/25 10:30:39;;;;;;;0.80;0.80;;;-4.00;99.90;;;;;;5077948;28;20561;-77
2022/12/25 10:33:20;;;;;;;2.58;2.38;;;-3.90;99.90;;;;;;5075194;28;20220;-75
2022/12/25 10:35:55;;;;;;;0.70;0.70;;;-3.80;99.90;;;;;;5076197;28;20192;-76
2022/12/25 10:38:21;;;;;;;2.60;2.40;;;-3.80;99.90;;;;;;5080779;28;20561;-75
2022/12/25 10:51:47;;;;;;;0.90;0.80;;;-3.60;99.90;;;;;;5032485;28;20208;-75
2022/12/25 11:11:48;;;;;;;0.75;0.75;;;-3.10;99.90;;;;;;4838315;29;20237;-75
2022/12/25 11:17:53;;;;;;;0.90;0.90;;;-3.20;99.90;;;;;;4810004;29;20226;-75
2022/12/25 11:20:21;;;;;;;1.55;1.45;;;-3.10;99.90;;;;;;4847442;29;20211;-76
2022/12/25 11:23:38;;;;;;;0.98;0.98;;;-3.00;99.90;;;;;;4879804;29;20216;-75
2022/12/25 11:46:43;;;;;;;0.80;0.80;;;-2.80;99.90;;;;;;4843275;29;20293;-77
2022/12/25 11:53:17;;;;;;;0.60;0.60;;;-2.70;99.90;;;;;;4862701;29;20229;-76
2022/12/25 12:06:46;;;;;;;0.90;0.90;;;-2.70;99.90;;;;;;4815357;29;20615;-76
2022/12/25 12:15:46;;;;;;;0.80;0.80;;;-2.60;99.90;;;;;;4842761;29;20585;-75
2022/12/25 12:18:57;;;;;;;0.60;0.60;;;-2.60;99.90;;;;;;4829315;29;20224;-75
2022/12/25 12:21:49;;;;;;;0.73;0.73;;;-2.50;99.90;;;;;;4829120;29;20212;-75
2022/12/25 12:38:14;;;;;;;0.77;0.77;;;-2.50;99.90;;;;;;5080991;28;20203;-77
2022/12/25 12:45:20;;;;;;;0.70;0.70;;;-2.60;99.90;;;;;;4994181;28;20209;-76
2022/12/25 12:48:15;;;;;;;0.80;0.80;;;-2.50;99.90;;;;;;4899926;29;20210;-75
2022/12/25 12:50:43;;;;;;;0.70;0.70;;;-2.50;99.90;;;;;;4899479;29;20223;-76
2022/12/25 12:56:31;;;;;;;0.80;0.80;;;-2.50;99.90;;;;;;4899230;29;20282;-75
2022/12/25 13:05:58;;;;;;;0.60;0.60;;;-2.50;99.90;;;;;;4908633;29;20233;-74
2022/12/25 13:09:01;;;;;;;0.80;0.80;;;-2.40;99.90;;;;;;4923560;29;20213;-75
2022/12/25 13:11:37;;;;;;;0.82;0.75;;;-2.40;99.90;;;;;;4933622;29;20209;-76
2022/12/25 13:14:04;;;;;;;0.70;0.70;;;-2.40;99.90;;;;;;4938227;29;20329;-76
2022/12/25 13:16:54;;;;;;;0.70;0.70;;;-2.30;99.90;;;;;;4935862;29;20201;-76
2022/12/25 13:19:48;;;;;;;0.70;0.70;;;-2.30;99.90;;;;;;4938272;29;20233;-76
2022/12/25 13:28:55;;;;;;;0.70;0.70;;;-2.30;99.90;;;;;;5041049;28;20212;-74
2022/12/25 13:31:30;;;;;;;0.80;0.80;;;-2.20;99.90;;;;;;5057345;28;20416;-74
2022/12/25 13:34:34;;;;;;;0.90;0.90;;;-2.20;99.90;;;;;;5079334;28;20659;-74
2022/12/25 13:37:17;;;;;;;0.60;0.60;;;-2.20;99.90;;;;;;5079082;28;20246;-76
2022/12/25 13:43:17;;;;;;;0.75;0.75;;;-2.20;99.90;;;;;;5075403;28;20212;-75
2022/12/25 13:46:36;;;;;;;0.88;0.88;;;-2.20;99.90;;;;;;5074929;28;20204;-75
2022/12/25 13:56:15;;;;;;;0.70;0.70;;;-2.10;99.90;;;;;;5049999;28;20201;-75
2022/12/25 13:58:41;;;;;;;0.80;0.80;;;-2.10;99.90;;;;;;5016182;28;20630;-75
2022/12/25 14:08:42;;;;;;;0.57;0.57;;;-1.90;99.90;;;;;;5056183;28;20397;-77
2022/12/25 14:15:13;;;;;;;1.13;1.10;;;-1.90;99.90;;;;;;5052473;28;20621;-75
2022/12/25 14:17:39;;;;;;;0.70;0.70;;;-1.80;99.90;;;;;;5038495;28;20243;-76
2022/12/25 14:20:25;;;;;;;0.65;0.65;;;-1.80;99.90;;;;;;5064240;28;20195;-75
2022/12/25 14:22:53;;;;;;;0.90;0.90;;;-1.80;99.90;;;;;;5114348;28;20183;-74
2022/12/25 14:25:21;;;;;;;0.65;0.65;;;-1.80;99.90;;;;;;5112832;28;20195;-76
2022/12/25 14:27:59;;;;;;;0.80;0.80;;;-1.70;99.90;;;;;;5098966;28;20214;-76
2022/12/25 14:30:27;;;;;;;0.70;0.70;;;-1.70;99.90;;;;;;5114224;28;20217;-75
2022/12/25 14:36:22;;;;;;;1.88;1.00;;;-1.70;99.90;;;;;;5117437;28;20694;-76
2022/12/25 14:39:18;;;;;;;0.65;0.65;;;-1.70;99.90;;;;;;5099078;28;20684;-76
2022/12/25 14:45:56;;;;;;;1.27;1.20;;;-1.60;99.90;;;;;;5118169;28;20221;-76
2022/12/25 14:48:25;;;;;;;0.60;0.60;;;-1.60;99.90;;;;;;5115610;28;20273;-75
2022/12/25 14:50:57;;;;;;;0.60;0.60;;;-1.60;99.90;;;;;;5112371;28;20658;-75
2022/12/25 14:53:35;;;;;;;1.38;1.25;;;-1.60;99.90;;;;;;5111818;28;20292;-75
2022/12/25 14:56:01;;;;;;;0.73;0.73;;;-1.50;99.90;;;;;;5094071;28;20722;-76
2022/12/25 14:58:30;;;;;;;0.73;0.73;;;-1.50;99.90;;;;;;5115725;28;20556;-76
2022/12/25 15:00:59;;;;;;;0.90;0.90;;;-1.50;99.90;;;;;;5087815;28;20188;-76
2022/12/25 15:03:37;;;;;;;1.63;1.52;;;-1.50;99.90;;;;;;5095292;28;20189;-75
2022/12/25 15:06:18;;;;;;;0.70;0.70;;;-1.40;99.90;;;;;;5072211;28;20199;-75
2022/12/25 15:08:58;;;;;;;0.70;0.70;;;-1.40;99.90;;;;;;5071362;28;20204;-75
2022/12/25 15:11:24;;;;;;;0.52;0.52;;;-1.40;99.90;;;;;;5074499;28;20199;-75
2022/12/25 15:13:49;;;;;;;0.68;0.68;;;-1.30;99.90;;;;;;5073427;28;20683;-76
2022/12/25 15:16:31;;;;;;;0.88;0.88;;;-1.30;99.90;;;;;;5073436;28;20598;-76
2022/12/25 15:18:59;;;;;;;0.73;0.73;;;-1.30;99.90;;;;;;5091638;28;20184;-75
2022/12/25 15:21:30;;;;;;;1.25;1.17;;;-1.30;99.90;;;;;;5091202;28;20245;-76
2022/12/25 15:23:58;;;;;;;1.33;1.23;;;-1.20;99.90;;;;;;5091412;28;20639;-76
2022/12/25 15:26:25;;;;;;;1.00;0.95;;;-1.30;99.90;;;;;;5072707;28;20228;-76
2022/12/25 15:28:51;;;;;;;0.70;0.70;;;-1.30;99.90;;;;;;5073307;28;20686;-76
2022/12/25 15:31:19;;;;;;;0.70;0.70;;;-1.20;99.90;;;;;;5091353;28;20584;-76
2022/12/25 15:33:45;;;;;;;0.80;0.80;;;-1.20;99.90;;;;;;5091430;28;20615;-76
2022/12/25 15:36:11;;;;;;;0.70;0.70;;;-1.10;99.90;;;;;;5091857;28;20188;-76
2022/12/25 15:38:37;;;;;;;0.77;0.77;;;-1.10;99.90;;;;;;5074119;28;20966;-76
2022/12/25 15:41:05;;;;;;;0.63;0.63;;;-1.10;99.90;;;;;;5059810;28;20196;-76
2022/12/25 15:43:31;;;;;;;0.88;0.88;;;-1.10;99.90;;;;;;5077665;28;20195;-76
2022/12/25 15:45:57;;;;;;;0.70;0.70;;;-1.10;99.90;;;;;;5078179;28;20196;-77
2022/12/25 15:48:22;;;;;;;0.60;0.60;;;-1.10;99.90;;;;;;5083434;28;20184;-75
2022/12/25 15:50:49;;;;;;;0.60;0.60;;;-1.10;99.90;;;;;;5079838;28;20206;-75
2022/12/25 15:53:14;;;;;;;0.60;0.60;;;-1.10;99.90;;;;;;5079750;28;20580;-75
2022/12/25 15:55:40;;;;;;;0.90;0.90;;;-1.00;99.90;;;;;;5097712;28;20192;-75
2022/12/25 15:58:19;;;;;;;0.70;0.70;;;-1.00;99.90;;;;;;5079767;28;20195;-75
2022/12/25 16:00:45;;;;;;;0.68;0.68;;;-0.90;99.90;;;;;;5098018;28;20191;-76
2022/12/25 16:03:13;;;;;;;2.60;1.92;;;-1.00;99.90;;;;;;5079691;28;20222;-75
2022/12/25 16:05:39;;;;;;;3.78;1.73;;;-0.90;99.90;;;;;;5079384;28;20253;-76
2022/12/25 16:08:04;;;;;;;0.60;0.60;;;-0.90;99.90;;;;;;5079435;28;20228;-76
2022/12/25 16:10:36;;;;;;;0.70;0.70;;;-0.90;99.90;;;;;;5098176;28;20642;-77
2022/12/25 16:13:04;;;;;;;1.05;1.05;;;-0.80;99.90;;;;;;5097569;28;20215;-77
2022/12/25 16:15:30;;;;;;;0.98;0.98;;;-0.80;99.90;;;;;;5097375;28;20214;-76
2022/12/25 16:17:55;;;;;;;0.80;0.80;;;-0.80;99.90;;;;;;5079604;28;20742;-76
2022/12/25 16:20:21;;;;;;;0.90;0.90;;;-0.80;99.90;;;;;;5079224;28;20212;-77
2022/12/25 16:22:47;;;;;;;1.30;1.20;;;-0.70;99.90;;;;;;5079862;28;20228;-77
2022/12/25 16:25:18;;;;;;;1.33;1.23;;;-0.70;99.90;;;;;;5079764;28;20196;-75
2022/12/25 16:27:44;;;;;;;1.73;1.63;;;-0.80;99.90;;;;;;5097950;28;20192;-74
2022/12/25 16:30:12;;;;;;;0.70;0.70;;;-0.80;99.90;;;;;;5097930;28;20224;-75
2022/12/25 16:32:41;;;;;;;0.77;0.77;;;-0.80;99.90;;;;;;5079417;28;20699;-75
2022/12/25 16:35:07;;;;;;;0.70;0.70;;;-0.80;99.90;;;;;;5062684;28;20200;-75
2022/12/25 16:37:34;;;;;;;0.57;0.57;;;-0.70;99.90;;;;;;5078987;28;20200;-75
2022/12/25 16:40:22;;;;;;;0.73;0.73;;;-0.70;99.90;;;;;;5079386;28;20715;-75
2022/12/25 16:42:51;;;;;;;0.60;0.60;;;-0.70;99.90;;;;;;5079316;28;20229;-75
2022/12/25 16:45:19;;;;;;;0.50;0.50;;;-0.70;99.90;;;;;;5079570;28;20685;-76
2022/12/25 16:47:48;;;;;;;1.63;1.52;;;-0.70;99.90;;;;;;5096908;28;20722;-76
2022/12/25 16:50:15;;;;;;;2.58;1.48;;;-0.70;99.90;;;;;;5075625;28;20778;-76
2022/12/25 16:52:41;;;;;;;0.60;0.60;;;-0.60;99.90;;;;;;5075728;28;20574;-76
2022/12/25 16:55:07;;;;;;;0.80;0.80;;;-0.60;99.90;;;;;;5094343;28;20188;-76
2022/12/25 16:57:36;;;;;;;0.60;0.60;;;-0.70;99.90;;;;;;5075866;28;20192;-76
2022/12/25 17:00:05;;;;;;;0.63;0.63;;;-0.60;99.90;;;;;;5076723;28;20549;-78
2022/12/25 17:02:31;;;;;;;0.90;0.90;;;-0.60;99.90;;;;;;5093901;28;20605;-77
2022/12/25 17:04:57;;;;;;;3.90;2.72;;;-0.50;99.90;;;;;;5075750;28;20196;-77
2022/12/25 17:07:22;;;;;;;0.75;0.75;;;-0.50;99.90;;;;;;5084353;28;20324;-77
2022/12/25 17:09:55;;;;;;;0.73;0.73;;;-0.60;99.90;;;;;;5094111;28;20241;-76
2022/12/25 17:12:31;;;;;;;0.50;0.50;;;-0.50;99.90;;;;;;5093579;28;20201;-77
2022/12/25 17:14:57;;;;;;;0.88;0.88;;;-0.50;99.90;;;;;;5092831;28;20201;-76
2022/12/25 17:17:23;;;;;;;1.77;1.67;;;-0.50;99.90;;;;;;5092765;28;20679;-75
2022/12/25 17:19:49;;;;;;;0.77;0.77;;;-0.50;99.90;;;;;;5092341;28;20188;-76
2022/12/25 17:22:15;;;;;;;1.25;1.15;;;-0.50;99.90;;;;;;5093686;28;20188;-75
2022/12/25 17:24:46;;;;;;;0.65;0.65;;;-0.50;99.90;;;;;;5092549;28;20295;-76
2022/12/25 17:27:12;;;;;;;0.85;0.85;;;-0.40;99.90;;;;;;5093769;28;20188;-76
2022/12/25 17:29:42;;;;;;;0.80;0.80;;;-0.40;99.90;;;;;;5093511;28;20218;-76
2022/12/25 17:32:10;;;;;;;0.98;0.98;;;-0.40;99.90;;;;;;5094922;28;20203;-76
2022/12/25 17:34:37;;;;;;;0.60;0.60;;;-0.40;99.90;;;;;;5096936;28;20216;-74
2022/12/25 17:37:03;;;;;;;0.60;0.60;;;-0.40;99.90;;;;;;5093582;28;20711;-76
2022/12/25 17:39:29;;;;;;;0.80;0.80;;;-0.40;99.90;;;;;;5092986;28;20196;-75
2022/12/25 17:41:55;;;;;;;0.98;0.98;;;-0.30;99.90;;;;;;5093451;28;20528;-76
2022/12/25 17:44:22;;;;;;;0.65;0.65;;;-0.30;99.90;;;;;;5092166;28;20192;-76
2022/12/25 17:46:48;;;;;;;0.70;0.70;;;-0.30;99.90;;;;;;5092566;28;20718;-76
2022/12/25 17:49:17;;;;;;;0.70;0.70;;;-0.20;99.90;;;;;;5093500;28;20200;-76
2022/12/25 17:51:43;;;;;;;0.50;0.50;;;-0.20;99.90;;;;;;5094384;28;20200;-76
2022/12/25 17:54:09;;;;;;;7.78;1.77;;;-0.20;99.90;;;;;;5093490;28;20605;-76
2022/12/25 17:56:36;;;;;;;0.63;0.63;;;-0.20;99.90;;;;;;5093621;28;20599;-76
2022/12/25 17:59:06;;;;;;;0.65;0.65;;;-0.20;99.90;;;;;;5092957;28;20177;-76
2022/12/25 18:01:37;;;;;;;0.70;0.70;;;-0.20;99.90;;;;;;5092553;28;20192;-75
2022/12/25 18:04:03;;;;;;;0.70;0.70;;;-0.20;99.90;;;;;;5091664;28;20233;-76
2022/12/25 18:06:34;;;;;;;0.90;0.90;;;-0.20;99.90;;;;;;5091642;28;20236;-76
2022/12/25 18:09:00;;;;;;;0.50;0.50;;;-0.10;99.90;;;;;;5093119;28;20200;-76